sensor_id;sensor_type;location;lat;lon;timestamp;temperature;humidity
39751;DHT22;37579;51.074;17.004;2023-05-07T00:01:59;24.50;51.90
39751;DHT22;37579;51.074;17.004;2023-05-07T00:04:25;24.50;52.00
39751;DHT22;37579;51.074;17.004;2023-05-07T00:06:50;24.50;51.90
39751;DHT22;37579;51.074;17.004;2023-05-07T00:09:16;24.50;52.00
39751;DHT22;37579;51.074;17.004;2023-05-07T00:11:42;24.50;52.00
39751;DHT22;37579;51.074;17.004;2023-05-07T00:14:08;24.40;52.00
39751;DHT22;37579;51.074;17.004;2023-05-07T00:16:34;24.40;52.00
39751;DHT22;37579;51.074;17.004;2023-05-07T00:19:00;24.40;51.90
39751;DHT22;37579;51.074;17.004;2023-05-07T00:21:25;24.40;52.00
39751;DHT22;37579;51.074;17.004;2023-05-07T00:23:54;24.40;51.90
39751;DHT22;37579;51.074;17.004;2023-05-07T00:26:20;24.40;51.90
39751;DHT22;37579;51.074;17.004;2023-05-07T00:28:49;24.40;52.10
39751;DHT22;37579;51.074;17.004;2023-05-07T00:31:15;24.40;52.00
39751;DHT22;37579;51.074;17.004;2023-05-07T00:33:41;24.40;52.10
39751;DHT22;37579;51.074;17.004;2023-05-07T00:36:07;24.40;52.10
39751;DHT22;37579;51.074;17.004;2023-05-07T00:38:32;24.40;52.10
39751;DHT22;37579;51.074;17.004;2023-05-07T00:40:58;24.40;52.00
39751;DHT22;37579;51.074;17.004;2023-05-07T00:43:24;24.40;52.00
39751;DHT22;37579;51.074;17.004;2023-05-07T00:45:50;24.40;51.90
39751;DHT22;37579;51.074;17.004;2023-05-07T00:48:16;24.40;52.00
39751;DHT22;37579;51.074;17.004;2023-05-07T00:50:42;24.40;52.00
39751;DHT22;37579;51.074;17.004;2023-05-07T00:53:08;24.30;52.00
39751;DHT22;37579;51.074;17.004;2023-05-07T00:55:35;24.30;51.90
39751;DHT22;37579;51.074;17.004;2023-05-07T00:58:01;24.30;52.00
39751;DHT22;37579;51.074;17.004;2023-05-07T01:00:27;24.30;52.00
39751;DHT22;37579;51.074;17.004;2023-05-07T01:02:53;24.30;52.00
39751;DHT22;37579;51.074;17.004;2023-05-07T01:05:20;24.30;51.90
39751;DHT22;37579;51.074;17.004;2023-05-07T01:07:49;24.30;51.90
39751;DHT22;37579;51.074;17.004;2023-05-07T01:10:15;24.30;51.90
39751;DHT22;37579;51.074;17.004;2023-05-07T01:12:43;24.30;51.90
39751;DHT22;37579;51.074;17.004;2023-05-07T01:15:10;24.30;51.90
39751;DHT22;37579;51.074;17.004;2023-05-07T01:17:37;24.30;51.90
39751;DHT22;37579;51.074;17.004;2023-05-07T01:20:06;24.30;51.90
39751;DHT22;37579;51.074;17.004;2023-05-07T01:22:34;24.30;51.90
39751;DHT22;37579;51.074;17.004;2023-05-07T01:25:05;24.30;51.80
39751;DHT22;37579;51.074;17.004;2023-05-07T01:27:32;24.30;51.80
39751;DHT22;37579;51.074;17.004;2023-05-07T01:29:59;24.30;51.80
39751;DHT22;37579;51.074;17.004;2023-05-07T01:32:50;24.30;51.80
39751;DHT22;37579;51.074;17.004;2023-05-07T01:35:20;24.30;51.80
39751;DHT22;37579;51.074;17.004;2023-05-07T01:37:47;24.20;51.80
39751;DHT22;37579;51.074;17.004;2023-05-07T01:40:13;24.30;51.90
39751;DHT22;37579;51.074;17.004;2023-05-07T01:42:41;24.30;51.80
39751;DHT22;37579;51.074;17.004;2023-05-07T01:45:07;24.20;51.80
39751;DHT22;37579;51.074;17.004;2023-05-07T01:47:33;24.30;51.70
39751;DHT22;37579;51.074;17.004;2023-05-07T01:50:00;24.30;51.80
39751;DHT22;37579;51.074;17.004;2023-05-07T01:52:27;24.20;51.80
39751;DHT22;37579;51.074;17.004;2023-05-07T01:54:53;24.20;51.70
39751;DHT22;37579;51.074;17.004;2023-05-07T01:57:19;24.20;51.80
39751;DHT22;37579;51.074;17.004;2023-05-07T01:59:44;24.20;51.80
39751;DHT22;37579;51.074;17.004;2023-05-07T02:02:10;24.20;51.80
39751;DHT22;37579;51.074;17.004;2023-05-07T02:04:40;24.20;51.70
39751;DHT22;37579;51.074;17.004;2023-05-07T02:07:06;24.20;51.70
39751;DHT22;37579;51.074;17.004;2023-05-07T02:09:31;24.20;51.70
39751;DHT22;37579;51.074;17.004;2023-05-07T02:11:58;24.20;51.60
39751;DHT22;37579;51.074;17.004;2023-05-07T02:14:24;24.20;51.60
39751;DHT22;37579;51.074;17.004;2023-05-07T02:16:51;24.20;51.70
39751;DHT22;37579;51.074;17.004;2023-05-07T02:19:17;24.20;51.60
39751;DHT22;37579;51.074;17.004;2023-05-07T02:21:43;24.20;51.60
39751;DHT22;37579;51.074;17.004;2023-05-07T02:24:09;24.20;51.60
39751;DHT22;37579;51.074;17.004;2023-05-07T02:26:35;24.20;51.60
39751;DHT22;37579;51.074;17.004;2023-05-07T02:29:01;24.20;51.60
39751;DHT22;37579;51.074;17.004;2023-05-07T02:31:26;24.20;51.60
39751;DHT22;37579;51.074;17.004;2023-05-07T02:33:52;24.20;51.70
39751;DHT22;37579;51.074;17.004;2023-05-07T02:36:18;24.20;51.60
39751;DHT22;37579;51.074;17.004;2023-05-07T02:38:50;24.20;51.60
39751;DHT22;37579;51.074;17.004;2023-05-07T02:41:16;24.20;51.60
39751;DHT22;37579;51.074;17.004;2023-05-07T02:43:42;24.20;51.60
39751;DHT22;37579;51.074;17.004;2023-05-07T02:46:09;24.20;51.50
39751;DHT22;37579;51.074;17.004;2023-05-07T02:48:39;24.20;51.50
39751;DHT22;37579;51.074;17.004;2023-05-07T02:51:05;24.20;51.40
39751;DHT22;37579;51.074;17.004;2023-05-07T02:53:32;24.20;51.50
39751;DHT22;37579;51.074;17.004;2023-05-07T02:55:59;24.20;51.40
39751;DHT22;37579;51.074;17.004;2023-05-07T02:58:26;24.20;51.30
39751;DHT22;37579;51.074;17.004;2023-05-07T03:00:52;24.20;51.40
39751;DHT22;37579;51.074;17.004;2023-05-07T03:03:46;24.20;51.40
39751;DHT22;37579;51.074;17.004;2023-05-07T03:06:12;24.20;51.40
39751;DHT22;37579;51.074;17.004;2023-05-07T03:08:38;24.20;51.30
39751;DHT22;37579;51.074;17.004;2023-05-07T03:11:03;24.10;51.40
39751;DHT22;37579;51.074;17.004;2023-05-07T03:13:29;24.20;51.40
39751;DHT22;37579;51.074;17.004;2023-05-07T03:15:56;24.20;51.30
39751;DHT22;37579;51.074;17.004;2023-05-07T03:18:21;24.20;51.30
39751;DHT22;37579;51.074;17.004;2023-05-07T03:20:48;24.20;51.30
39751;DHT22;37579;51.074;17.004;2023-05-07T03:23:15;24.20;51.30
39751;DHT22;37579;51.074;17.004;2023-05-07T03:25:41;24.10;51.30
39751;DHT22;37579;51.074;17.004;2023-05-07T03:28:06;24.10;51.30
39751;DHT22;37579;51.074;17.004;2023-05-07T03:30:39;24.20;51.20
39751;DHT22;37579;51.074;17.004;2023-05-07T03:33:04;24.10;51.20
39751;DHT22;37579;51.074;17.004;2023-05-07T03:35:30;24.20;51.20
39751;DHT22;37579;51.074;17.004;2023-05-07T03:37:56;24.20;51.10
39751;DHT22;37579;51.074;17.004;2023-05-07T03:40:22;24.20;51.10
39751;DHT22;37579;51.074;17.004;2023-05-07T03:42:52;24.20;51.10
39751;DHT22;37579;51.074;17.004;2023-05-07T03:45:20;24.20;51.00
39751;DHT22;37579;51.074;17.004;2023-05-07T03:47:53;24.20;51.00
39751;DHT22;37579;51.074;17.004;2023-05-07T03:50:20;24.20;51.00
39751;DHT22;37579;51.074;17.004;2023-05-07T03:52:46;24.20;51.10
39751;DHT22;37579;51.074;17.004;2023-05-07T03:55:14;24.20;51.10
39751;DHT22;37579;51.074;17.004;2023-05-07T03:57:47;24.20;51.00
39751;DHT22;37579;51.074;17.004;2023-05-07T04:00:13;24.20;51.00
39751;DHT22;37579;51.074;17.004;2023-05-07T04:02:48;24.20;51.00
39751;DHT22;37579;51.074;17.004;2023-05-07T04:05:18;24.10;50.90
39751;DHT22;37579;51.074;17.004;2023-05-07T04:07:47;24.10;50.90
39751;DHT22;37579;51.074;17.004;2023-05-07T04:10:17;24.10;51.00
39751;DHT22;37579;51.074;17.004;2023-05-07T04:12:45;24.10;51.00
39751;DHT22;37579;51.074;17.004;2023-05-07T04:15:16;24.10;51.00
39751;DHT22;37579;51.074;17.004;2023-05-07T04:17:41;24.10;50.90
39751;DHT22;37579;51.074;17.004;2023-05-07T04:20:14;24.10;50.90
39751;DHT22;37579;51.074;17.004;2023-05-07T04:22:41;24.10;50.90
39751;DHT22;37579;51.074;17.004;2023-05-07T04:25:07;24.20;50.80
39751;DHT22;37579;51.074;17.004;2023-05-07T04:27:35;24.20;50.80
39751;DHT22;37579;51.074;17.004;2023-05-07T04:30:03;24.10;50.70
39751;DHT22;37579;51.074;17.004;2023-05-07T04:32:33;24.20;50.80
39751;DHT22;37579;51.074;17.004;2023-05-07T04:34:59;24.20;50.80
39751;DHT22;37579;51.074;17.004;2023-05-07T04:37:25;24.20;50.80
39751;DHT22;37579;51.074;17.004;2023-05-07T04:39:52;24.20;50.80
39751;DHT22;37579;51.074;17.004;2023-05-07T04:42:18;24.20;50.80
39751;DHT22;37579;51.074;17.004;2023-05-07T04:44:45;24.10;50.80
39751;DHT22;37579;51.074;17.004;2023-05-07T04:47:12;24.10;50.70
39751;DHT22;37579;51.074;17.004;2023-05-07T04:49:38;24.10;50.70
39751;DHT22;37579;51.074;17.004;2023-05-07T04:52:05;24.10;50.70
39751;DHT22;37579;51.074;17.004;2023-05-07T04:54:31;24.10;50.70
39751;DHT22;37579;51.074;17.004;2023-05-07T04:56:57;24.20;50.70
39751;DHT22;37579;51.074;17.004;2023-05-07T04:59:23;24.10;50.70
39751;DHT22;37579;51.074;17.004;2023-05-07T05:01:50;24.20;50.70
39751;DHT22;37579;51.074;17.004;2023-05-07T05:04:15;24.20;50.70
39751;DHT22;37579;51.074;17.004;2023-05-07T05:06:41;24.10;50.60
39751;DHT22;37579;51.074;17.004;2023-05-07T05:09:09;24.20;50.70
39751;DHT22;37579;51.074;17.004;2023-05-07T05:11:36;24.20;50.70
39751;DHT22;37579;51.074;17.004;2023-05-07T05:14:02;24.20;50.70
39751;DHT22;37579;51.074;17.004;2023-05-07T05:16:27;24.20;50.60
39751;DHT22;37579;51.074;17.004;2023-05-07T05:18:53;24.10;50.70
39751;DHT22;37579;51.074;17.004;2023-05-07T05:21:21;24.20;50.70
39751;DHT22;37579;51.074;17.004;2023-05-07T05:23:50;24.20;50.60
39751;DHT22;37579;51.074;17.004;2023-05-07T05:26:19;24.30;50.60
39751;DHT22;37579;51.074;17.004;2023-05-07T05:28:47;24.30;50.50
39751;DHT22;37579;51.074;17.004;2023-05-07T05:31:15;24.30;50.50
39751;DHT22;37579;51.074;17.004;2023-05-07T05:33:41;24.40;50.50
39751;DHT22;37579;51.074;17.004;2023-05-07T05:36:09;24.40;50.50
39751;DHT22;37579;51.074;17.004;2023-05-07T05:38:36;24.40;50.50
39751;DHT22;37579;51.074;17.004;2023-05-07T05:41:02;24.40;50.40
39751;DHT22;37579;51.074;17.004;2023-05-07T05:43:29;24.40;50.50
39751;DHT22;37579;51.074;17.004;2023-05-07T05:45:56;24.40;50.40
39751;DHT22;37579;51.074;17.004;2023-05-07T05:48:22;24.40;50.40
39751;DHT22;37579;51.074;17.004;2023-05-07T05:50:49;24.40;50.40
39751;DHT22;37579;51.074;17.004;2023-05-07T05:53:17;24.40;50.40
39751;DHT22;37579;51.074;17.004;2023-05-07T05:55:43;24.40;50.30
39751;DHT22;37579;51.074;17.004;2023-05-07T05:58:10;24.40;50.20
39751;DHT22;37579;51.074;17.004;2023-05-07T06:00:39;24.40;50.20
39751;DHT22;37579;51.074;17.004;2023-05-07T06:03:06;24.50;50.20
39751;DHT22;37579;51.074;17.004;2023-05-07T06:05:33;24.50;50.10
39751;DHT22;37579;51.074;17.004;2023-05-07T06:07:59;24.60;50.10
39751;DHT22;37579;51.074;17.004;2023-05-07T06:10:29;24.50;50.10
39751;DHT22;37579;51.074;17.004;2023-05-07T06:12:56;24.50;50.00
39751;DHT22;37579;51.074;17.004;2023-05-07T06:15:22;24.50;50.00
39751;DHT22;37579;51.074;17.004;2023-05-07T06:17:48;24.50;50.00
39751;DHT22;37579;51.074;17.004;2023-05-07T06:20:15;24.50;49.80
39751;DHT22;37579;51.074;17.004;2023-05-07T06:22:41;24.50;49.80
39751;DHT22;37579;51.074;17.004;2023-05-07T06:25:08;24.50;49.90
39751;DHT22;37579;51.074;17.004;2023-05-07T06:27:35;24.60;50.00
39751;DHT22;37579;51.074;17.004;2023-05-07T06:30:01;24.50;49.90
39751;DHT22;37579;51.074;17.004;2023-05-07T06:32:27;24.60;49.90
39751;DHT22;37579;51.074;17.004;2023-05-07T06:34:55;24.60;49.70
39751;DHT22;37579;51.074;17.004;2023-05-07T06:37:21;24.70;49.70
39751;DHT22;37579;51.074;17.004;2023-05-07T06:39:57;24.70;49.60
39751;DHT22;37579;51.074;17.004;2023-05-07T06:42:23;24.80;49.60
39751;DHT22;37579;51.074;17.004;2023-05-07T06:44:49;24.70;49.60
39751;DHT22;37579;51.074;17.004;2023-05-07T06:47:17;24.70;49.60
39751;DHT22;37579;51.074;17.004;2023-05-07T06:49:45;24.70;49.60
39751;DHT22;37579;51.074;17.004;2023-05-07T06:52:15;24.70;50.20
39751;DHT22;37579;51.074;17.004;2023-05-07T06:54:41;24.70;49.60
39751;DHT22;37579;51.074;17.004;2023-05-07T06:57:08;24.80;49.70
39751;DHT22;37579;51.074;17.004;2023-05-07T06:59:34;24.80;49.80
39751;DHT22;37579;51.074;17.004;2023-05-07T07:02:00;24.70;49.70
39751;DHT22;37579;51.074;17.004;2023-05-07T07:04:26;24.80;49.80
39751;DHT22;37579;51.074;17.004;2023-05-07T07:06:59;24.80;49.90
39751;DHT22;37579;51.074;17.004;2023-05-07T07:12:10;24.80;49.90
39751;DHT22;37579;51.074;17.004;2023-05-07T07:14:38;24.80;49.90
39751;DHT22;37579;51.074;17.004;2023-05-07T07:17:04;24.80;50.00
39751;DHT22;37579;51.074;17.004;2023-05-07T07:19:31;24.80;49.90
39751;DHT22;37579;51.074;17.004;2023-05-07T07:21:57;24.80;50.00
39751;DHT22;37579;51.074;17.004;2023-05-07T07:24:23;24.80;50.00
39751;DHT22;37579;51.074;17.004;2023-05-07T07:26:54;24.80;50.00
39751;DHT22;37579;51.074;17.004;2023-05-07T07:29:21;24.80;50.00
39751;DHT22;37579;51.074;17.004;2023-05-07T07:31:48;24.80;50.00
39751;DHT22;37579;51.074;17.004;2023-05-07T07:34:18;24.80;50.00
39751;DHT22;37579;51.074;17.004;2023-05-07T07:36:44;24.80;50.00
39751;DHT22;37579;51.074;17.004;2023-05-07T07:39:10;24.80;50.00
39751;DHT22;37579;51.074;17.004;2023-05-07T07:41:36;24.80;50.00
39751;DHT22;37579;51.074;17.004;2023-05-07T07:44:04;24.80;49.90
39751;DHT22;37579;51.074;17.004;2023-05-07T07:46:33;24.80;50.00
39751;DHT22;37579;51.074;17.004;2023-05-07T07:49:00;24.80;50.00
39751;DHT22;37579;51.074;17.004;2023-05-07T07:51:26;24.80;50.00
39751;DHT22;37579;51.074;17.004;2023-05-07T07:53:52;24.80;50.00
39751;DHT22;37579;51.074;17.004;2023-05-07T07:56:18;24.90;50.10
39751;DHT22;37579;51.074;17.004;2023-05-07T07:58:44;24.90;50.00
39751;DHT22;37579;51.074;17.004;2023-05-07T08:01:10;24.80;50.10
39751;DHT22;37579;51.074;17.004;2023-05-07T08:03:38;24.80;50.00
39751;DHT22;37579;51.074;17.004;2023-05-07T08:06:04;24.80;50.10
39751;DHT22;37579;51.074;17.004;2023-05-07T08:08:31;24.80;50.00
39751;DHT22;37579;51.074;17.004;2023-05-07T08:10:57;24.80;50.10
39751;DHT22;37579;51.074;17.004;2023-05-07T08:13:28;24.90;50.20
39751;DHT22;37579;51.074;17.004;2023-05-07T08:15:54;24.80;50.10
39751;DHT22;37579;51.074;17.004;2023-05-07T08:18:19;24.80;50.20
39751;DHT22;37579;51.074;17.004;2023-05-07T08:20:45;24.80;50.20
39751;DHT22;37579;51.074;17.004;2023-05-07T08:23:16;24.80;50.30
39751;DHT22;37579;51.074;17.004;2023-05-07T08:25:43;24.80;50.20
39751;DHT22;37579;51.074;17.004;2023-05-07T08:28:10;24.80;50.10
39751;DHT22;37579;51.074;17.004;2023-05-07T08:30:37;24.80;50.30
39751;DHT22;37579;51.074;17.004;2023-05-07T08:33:03;24.80;50.40
39751;DHT22;37579;51.074;17.004;2023-05-07T08:35:29;24.80;50.70
39751;DHT22;37579;51.074;17.004;2023-05-07T08:37:55;24.80;50.70
39751;DHT22;37579;51.074;17.004;2023-05-07T08:40:26;24.80;50.80
39751;DHT22;37579;51.074;17.004;2023-05-07T08:42:53;24.80;50.80
39751;DHT22;37579;51.074;17.004;2023-05-07T08:45:20;24.80;50.70
39751;DHT22;37579;51.074;17.004;2023-05-07T08:47:58;24.80;50.90
39751;DHT22;37579;51.074;17.004;2023-05-07T08:50:26;24.80;51.10
39751;DHT22;37579;51.074;17.004;2023-05-07T08:52:53;24.80;51.40
39751;DHT22;37579;51.074;17.004;2023-05-07T08:55:20;24.80;51.60
39751;DHT22;37579;51.074;17.004;2023-05-07T08:57:46;24.70;51.80
39751;DHT22;37579;51.074;17.004;2023-05-07T09:00:14;24.70;51.90
39751;DHT22;37579;51.074;17.004;2023-05-07T09:02:41;24.70;51.90
39751;DHT22;37579;51.074;17.004;2023-05-07T09:05:08;24.70;51.90
39751;DHT22;37579;51.074;17.004;2023-05-07T09:07:34;24.70;52.10
39751;DHT22;37579;51.074;17.004;2023-05-07T09:10:04;24.60;52.00
39751;DHT22;37579;51.074;17.004;2023-05-07T09:12:31;24.70;52.10
39751;DHT22;37579;51.074;17.004;2023-05-07T09:14:57;24.70;52.20
39751;DHT22;37579;51.074;17.004;2023-05-07T09:17:24;24.80;52.30
39751;DHT22;37579;51.074;17.004;2023-05-07T09:19:49;24.70;52.30
39751;DHT22;37579;51.074;17.004;2023-05-07T09:22:16;24.70;52.60
39751;DHT22;37579;51.074;17.004;2023-05-07T09:24:51;24.80;52.60
39751;DHT22;37579;51.074;17.004;2023-05-07T09:27:21;24.80;52.30
39751;DHT22;37579;51.074;17.004;2023-05-07T09:29:47;24.70;52.40
39751;DHT22;37579;51.074;17.004;2023-05-07T09:32:14;24.70;52.50
39751;DHT22;37579;51.074;17.004;2023-05-07T09:34:42;24.80;52.60
39751;DHT22;37579;51.074;17.004;2023-05-07T09:37:08;24.80;52.60
39751;DHT22;37579;51.074;17.004;2023-05-07T09:39:42;24.80;52.70
39751;DHT22;37579;51.074;17.004;2023-05-07T09:42:09;24.70;52.70
39751;DHT22;37579;51.074;17.004;2023-05-07T09:44:38;24.70;52.70
39751;DHT22;37579;51.074;17.004;2023-05-07T09:47:08;24.70;52.70
39751;DHT22;37579;51.074;17.004;2023-05-07T09:49:43;24.80;52.70
39751;DHT22;37579;51.074;17.004;2023-05-07T09:52:14;24.80;52.70
39751;DHT22;37579;51.074;17.004;2023-05-07T09:54:47;24.80;53.00
39751;DHT22;37579;51.074;17.004;2023-05-07T09:57:17;24.80;52.90
39751;DHT22;37579;51.074;17.004;2023-05-07T09:59:48;24.80;53.00
39751;DHT22;37579;51.074;17.004;2023-05-07T10:02:18;24.80;53.10
39751;DHT22;37579;51.074;17.004;2023-05-07T10:04:48;24.80;53.20
39751;DHT22;37579;51.074;17.004;2023-05-07T10:07:18;24.80;53.30
39751;DHT22;37579;51.074;17.004;2023-05-07T10:09:45;24.80;53.30
39751;DHT22;37579;51.074;17.004;2023-05-07T10:12:21;24.90;52.90
39751;DHT22;37579;51.074;17.004;2023-05-07T10:14:48;24.90;53.30
39751;DHT22;37579;51.074;17.004;2023-05-07T10:17:16;24.90;53.40
39751;DHT22;37579;51.074;17.004;2023-05-07T10:19:44;24.80;53.20
39751;DHT22;37579;51.074;17.004;2023-05-07T10:22:11;24.80;53.30
39751;DHT22;37579;51.074;17.004;2023-05-07T10:24:43;24.80;53.20
39751;DHT22;37579;51.074;17.004;2023-05-07T10:27:16;24.80;53.10
39751;DHT22;37579;51.074;17.004;2023-05-07T10:30:24;24.80;53.00
39751;DHT22;37579;51.074;17.004;2023-05-07T10:32:54;24.70;53.00
39751;DHT22;37579;51.074;17.004;2023-05-07T10:35:31;24.70;52.80
39751;DHT22;37579;51.074;17.004;2023-05-07T10:38:00;24.70;52.10
39751;DHT22;37579;51.074;17.004;2023-05-07T10:40:30;24.60;52.40
39751;DHT22;37579;51.074;17.004;2023-05-07T10:45:27;24.50;51.40
39751;DHT22;37579;51.074;17.004;2023-05-07T10:48:13;24.40;52.00
39751;DHT22;37579;51.074;17.004;2023-05-07T10:50:42;24.40;51.20
39751;DHT22;37579;51.074;17.004;2023-05-07T10:58:46;24.40;51.90
39751;DHT22;37579;51.074;17.004;2023-05-07T11:01:53;24.40;51.60
39751;DHT22;37579;51.074;17.004;2023-05-07T11:04:25;24.40;51.80
39751;DHT22;37579;51.074;17.004;2023-05-07T11:15:09;24.30;51.40
39751;DHT22;37579;51.074;17.004;2023-05-07T11:17:56;24.30;51.30
39751;DHT22;37579;51.074;17.004;2023-05-07T11:20:53;24.30;51.40
39751;DHT22;37579;51.074;17.004;2023-05-07T11:26:32;24.30;51.30
39751;DHT22;37579;51.074;17.004;2023-05-07T11:29:19;24.30;51.20
39751;DHT22;37579;51.074;17.004;2023-05-07T11:31:50;24.30;51.30
39751;DHT22;37579;51.074;17.004;2023-05-07T11:34:22;24.30;51.30
39751;DHT22;37579;51.074;17.004;2023-05-07T11:36:48;24.30;51.40
39751;DHT22;37579;51.074;17.004;2023-05-07T11:39:30;24.30;51.30
39751;DHT22;37579;51.074;17.004;2023-05-07T11:41:59;24.20;51.40
39751;DHT22;37579;51.074;17.004;2023-05-07T11:44:25;24.20;51.40
39751;DHT22;37579;51.074;17.004;2023-05-07T11:47:04;24.30;51.30
39751;DHT22;37579;51.074;17.004;2023-05-07T11:49:31;24.20;51.30
39751;DHT22;37579;51.074;17.004;2023-05-07T11:51:57;24.20;51.40
39751;DHT22;37579;51.074;17.004;2023-05-07T11:54:22;24.30;51.80
39751;DHT22;37579;51.074;17.004;2023-05-07T11:56:49;24.30;52.50
39751;DHT22;37579;51.074;17.004;2023-05-07T11:59:17;24.20;52.20
39751;DHT22;37579;51.074;17.004;2023-05-07T12:01:46;24.10;51.40
39751;DHT22;37579;51.074;17.004;2023-05-07T12:04:12;24.00;52.00
39751;DHT22;37579;51.074;17.004;2023-05-07T12:06:38;24.00;52.20
39751;DHT22;37579;51.074;17.004;2023-05-07T12:09:04;24.00;52.10
39751;DHT22;37579;51.074;17.004;2023-05-07T12:11:32;24.10;51.90
39751;DHT22;37579;51.074;17.004;2023-05-07T12:13:59;24.20;52.00
39751;DHT22;37579;51.074;17.004;2023-05-07T12:16:25;24.10;52.00
39751;DHT22;37579;51.074;17.004;2023-05-07T12:18:52;24.10;52.40
39751;DHT22;37579;51.074;17.004;2023-05-07T12:21:20;24.10;52.50
39751;DHT22;37579;51.074;17.004;2023-05-07T12:23:46;24.10;52.50
39751;DHT22;37579;51.074;17.004;2023-05-07T12:26:12;24.10;52.30
39751;DHT22;37579;51.074;17.004;2023-05-07T12:28:38;24.10;52.10
39751;DHT22;37579;51.074;17.004;2023-05-07T12:31:05;24.10;52.10
39751;DHT22;37579;51.074;17.004;2023-05-07T12:33:31;24.10;51.90
39751;DHT22;37579;51.074;17.004;2023-05-07T12:35:58;24.10;52.00
39751;DHT22;37579;51.074;17.004;2023-05-07T12:38:24;24.10;52.30
39751;DHT22;37579;51.074;17.004;2023-05-07T12:40:54;24.10;52.00
39751;DHT22;37579;51.074;17.004;2023-05-07T12:43:21;24.10;51.80
39751;DHT22;37579;51.074;17.004;2023-05-07T12:45:50;24.10;51.70
39751;DHT22;37579;51.074;17.004;2023-05-07T12:48:16;24.20;51.70
39751;DHT22;37579;51.074;17.004;2023-05-07T12:50:42;24.20;51.80
39751;DHT22;37579;51.074;17.004;2023-05-07T12:53:10;24.20;51.60
39751;DHT22;37579;51.074;17.004;2023-05-07T12:58:07;24.30;51.50
39751;DHT22;37579;51.074;17.004;2023-05-07T13:00:36;24.30;51.70
39751;DHT22;37579;51.074;17.004;2023-05-07T13:03:02;24.30;51.70
39751;DHT22;37579;51.074;17.004;2023-05-07T13:05:28;24.30;51.90
39751;DHT22;37579;51.074;17.004;2023-05-07T13:07:55;24.30;52.10
39751;DHT22;37579;51.074;17.004;2023-05-07T13:10:22;24.30;52.00
39751;DHT22;37579;51.074;17.004;2023-05-07T13:12:49;24.30;51.90
39751;DHT22;37579;51.074;17.004;2023-05-07T13:15:15;24.30;51.70
39751;DHT22;37579;51.074;17.004;2023-05-07T13:17:41;24.20;51.70
39751;DHT22;37579;51.074;17.004;2023-05-07T13:20:08;24.30;51.50
39751;DHT22;37579;51.074;17.004;2023-05-07T13:22:34;24.40;51.40
39751;DHT22;37579;51.074;17.004;2023-05-07T13:25:00;24.40;51.40
39751;DHT22;37579;51.074;17.004;2023-05-07T13:27:26;24.40;51.20
39751;DHT22;37579;51.074;17.004;2023-05-07T13:29:52;24.40;51.60
39751;DHT22;37579;51.074;17.004;2023-05-07T13:32:18;24.40;52.00
39751;DHT22;37579;51.074;17.004;2023-05-07T13:34:43;24.40;52.00
39751;DHT22;37579;51.074;17.004;2023-05-07T13:37:09;24.40;52.00
39751;DHT22;37579;51.074;17.004;2023-05-07T13:39:35;24.40;51.80
39751;DHT22;37579;51.074;17.004;2023-05-07T13:42:01;24.50;51.70
39751;DHT22;37579;51.074;17.004;2023-05-07T13:44:26;24.40;51.40
39751;DHT22;37579;51.074;17.004;2023-05-07T13:46:52;24.40;51.30
39751;DHT22;37579;51.074;17.004;2023-05-07T13:49:18;24.30;50.80
39751;DHT22;37579;51.074;17.004;2023-05-07T13:51:44;24.30;50.50
39751;DHT22;37579;51.074;17.004;2023-05-07T13:54:10;24.30;50.60
39751;DHT22;37579;51.074;17.004;2023-05-07T13:56:35;24.30;50.70
39751;DHT22;37579;51.074;17.004;2023-05-07T13:59:01;24.30;50.20
39751;DHT22;37579;51.074;17.004;2023-05-07T14:01:27;24.30;49.60
39751;DHT22;37579;51.074;17.004;2023-05-07T14:03:53;24.20;49.50
39751;DHT22;37579;51.074;17.004;2023-05-07T14:06:19;24.30;49.90
39751;DHT22;37579;51.074;17.004;2023-05-07T14:08:45;24.30;50.40
39751;DHT22;37579;51.074;17.004;2023-05-07T14:11:11;24.40;50.10
39751;DHT22;37579;51.074;17.004;2023-05-07T14:13:37;24.30;49.50
39751;DHT22;37579;51.074;17.004;2023-05-07T14:16:04;24.30;49.30
39751;DHT22;37579;51.074;17.004;2023-05-07T14:18:30;24.20;48.60
39751;DHT22;37579;51.074;17.004;2023-05-07T14:20:55;24.30;49.20
39751;DHT22;37579;51.074;17.004;2023-05-07T14:23:21;24.30;48.90
39751;DHT22;37579;51.074;17.004;2023-05-07T14:25:52;24.20;48.50
39751;DHT22;37579;51.074;17.004;2023-05-07T14:28:18;24.20;48.60
39751;DHT22;37579;51.074;17.004;2023-05-07T14:30:44;24.20;48.10
39751;DHT22;37579;51.074;17.004;2023-05-07T14:33:10;23.70;43.10
39751;DHT22;37579;51.074;17.004;2023-05-07T14:35:36;23.90;46.40
39751;DHT22;37579;51.074;17.004;2023-05-07T14:38:02;24.00;46.90
39751;DHT22;37579;51.074;17.004;2023-05-07T14:40:28;24.10;46.70
39751;DHT22;37579;51.074;17.004;2023-05-07T14:42:53;24.20;47.00
39751;DHT22;37579;51.074;17.004;2023-05-07T14:45:21;24.10;47.20
39751;DHT22;37579;51.074;17.004;2023-05-07T14:47:47;23.80;44.80
39751;DHT22;37579;51.074;17.004;2023-05-07T14:50:12;23.90;45.50
39751;DHT22;37579;51.074;17.004;2023-05-07T14:52:38;24.10;46.10
39751;DHT22;37579;51.074;17.004;2023-05-07T14:55:04;24.10;45.90
39751;DHT22;37579;51.074;17.004;2023-05-07T14:57:30;24.20;46.60
39751;DHT22;37579;51.074;17.004;2023-05-07T15:00:01;24.20;46.50
39751;DHT22;37579;51.074;17.004;2023-05-07T15:02:27;24.20;46.40
39751;DHT22;37579;51.074;17.004;2023-05-07T15:04:53;24.30;46.00
39751;DHT22;37579;51.074;17.004;2023-05-07T15:07:18;24.10;45.00
39751;DHT22;37579;51.074;17.004;2023-05-07T15:09:44;24.20;45.70
39751;DHT22;37579;51.074;17.004;2023-05-07T15:12:11;24.20;46.50
39751;DHT22;37579;51.074;17.004;2023-05-07T15:14:38;24.30;46.40
39751;DHT22;37579;51.074;17.004;2023-05-07T15:17:04;24.30;46.70
39751;DHT22;37579;51.074;17.004;2023-05-07T15:19:29;24.30;46.90
39751;DHT22;37579;51.074;17.004;2023-05-07T15:21:57;24.30;47.20
39751;DHT22;37579;51.074;17.004;2023-05-07T15:24:24;24.20;47.10
39751;DHT22;37579;51.074;17.004;2023-05-07T15:26:51;24.40;47.10
39751;DHT22;37579;51.074;17.004;2023-05-07T15:29:17;24.30;44.10
39751;DHT22;37579;51.074;17.004;2023-05-07T15:31:43;23.70;39.90
39751;DHT22;37579;51.074;17.004;2023-05-07T15:34:09;23.90;43.70
39751;DHT22;37579;51.074;17.004;2023-05-07T15:36:35;24.10;45.00
39751;DHT22;37579;51.074;17.004;2023-05-07T15:39:01;24.10;45.50
39751;DHT22;37579;51.074;17.004;2023-05-07T15:41:28;24.20;45.30
39751;DHT22;37579;51.074;17.004;2023-05-07T15:43:54;24.20;45.40